createdAt,value
2023-07-15T00:00:00.211Z,8.65
2023-07-15T00:00:13.608Z,10.48
2023-07-15T00:00:25.551Z,8.18
2023-07-15T00:00:37.460Z,6.32
2023-07-15T00:00:52.137Z,4.97
2023-07-15T00:01:10.301Z,4.95
2023-07-15T00:01:25.624Z,10.63
2023-07-15T00:01:38.839Z,8.90
2023-07-15T00:01:51.272Z,6.07
2023-07-15T00:02:03.579Z,7.28
2023-07-15T00:02:15.466Z,7.05
2023-07-15T00:02:27.454Z,12.15
2023-07-15T00:02:39.537Z,14.32
2023-07-15T00:02:51.683Z,12.68
2023-07-15T00:03:19.807Z,5.82
2023-07-15T00:03:31.930Z,5.50
2023-07-15T00:03:44.041Z,5.00
2023-07-15T00:03:56.683Z,4.50
2023-07-15T00:04:13.131Z,4.38
2023-07-15T00:04:25.470Z,7.70
2023-07-15T00:04:37.534Z,10.05
2023-07-15T00:04:49.605Z,8.23
2023-07-15T00:05:01.840Z,8.80
2023-07-15T00:05:19.090Z,8.10
2023-07-15T00:05:33.028Z,5.03
2023-07-15T00:05:45.226Z,4.57
2023-07-15T00:05:57.174Z,5.00
2023-07-15T00:06:10.750Z,5.15
2023-07-15T00:06:24.458Z,6.70
2023-07-15T00:06:36.431Z,8.10
2023-07-15T00:06:48.757Z,9.45
2023-07-15T00:07:00.900Z,9.02
2023-07-15T00:07:13.074Z,8.98
2023-07-15T00:07:25.239Z,9.80
2023-07-15T00:07:37.542Z,10.40
2023-07-15T00:07:49.918Z,9.50
2023-07-15T00:08:02.270Z,8.13
2023-07-15T00:08:15.011Z,7.43
2023-07-15T00:08:28.684Z,7.55
2023-07-15T00:08:40.939Z,7.80
2023-07-15T00:08:53.647Z,9.02
2023-07-15T00:09:08.213Z,9.32
2023-07-15T00:09:20.573Z,12.88
2023-07-15T00:09:32.713Z,12.25
2023-07-15T00:09:44.672Z,14.52
2023-07-15T00:09:56.696Z,9.57
2023-07-15T00:10:09.912Z,12.95
2023-07-15T00:10:23.243Z,12.40
2023-07-15T00:10:38.575Z,8.20
2023-07-15T00:10:50.903Z,11.65
2023-07-15T00:11:03.559Z,12.77
2023-07-15T00:11:22.282Z,6.28
2023-07-15T00:11:37.489Z,5.55
2023-07-15T00:11:49.393Z,6.15
2023-07-15T00:12:01.488Z,6.90
2023-07-15T00:12:13.505Z,9.93
2023-07-15T00:12:25.684Z,9.48
2023-07-15T00:12:39.600Z,6.97
2023-07-15T00:12:51.682Z,7.18
2023-07-15T00:13:03.970Z,9.07
2023-07-15T00:13:17.669Z,12.43
2023-07-15T00:13:29.751Z,11.40
2023-07-15T00:13:41.817Z,10.20
2023-07-15T00:13:57.400Z,11.80
2023-07-15T00:14:18.386Z,13.00
2023-07-15T00:14:38.038Z,12.13
2023-07-15T00:14:50.101Z,11.05
2023-07-15T00:15:02.233Z,6.53
2023-07-15T00:15:14.758Z,9.00
2023-07-15T00:15:27.202Z,8.82
2023-07-15T00:15:39.368Z,6.53
2023-07-15T00:15:52.457Z,8.55
2023-07-15T00:16:04.731Z,9.98
2023-07-15T00:16:17.126Z,9.93
2023-07-15T00:16:31.383Z,10.85
2023-07-15T00:16:43.759Z,9.85
2023-07-15T00:16:56.143Z,6.25
2023-07-15T00:17:08.762Z,6.00
2023-07-15T00:17:20.688Z,4.40
2023-07-15T00:17:32.761Z,7.25
2023-07-15T00:17:45.349Z,9.82
2023-07-15T00:17:57.652Z,8.10
2023-07-15T00:18:11.525Z,13.00
2023-07-15T00:18:23.668Z,13.02
2023-07-15T00:18:35.858Z,9.00
2023-07-15T00:18:48.443Z,7.80
2023-07-15T00:19:00.662Z,5.78
2023-07-15T00:19:12.719Z,9.00
2023-07-15T00:19:25.151Z,8.48
2023-07-15T00:19:37.155Z,10.00
2023-07-15T00:19:51.660Z,8.18
2023-07-15T00:20:04.517Z,6.65
2023-07-15T00:20:16.714Z,7.28
2023-07-15T00:20:29.002Z,8.30
2023-07-15T00:20:41.456Z,8.35
2023-07-15T00:20:53.620Z,8.00
2023-07-15T00:21:15.150Z,6.88
2023-07-15T00:21:29.188Z,7.80
2023-07-15T00:21:41.269Z,6.78
2023-07-15T00:21:53.468Z,5.05
2023-07-15T00:22:06.324Z,4.80
2023-07-15T00:22:18.367Z,4.80
2023-07-15T00:22:30.421Z,4.88
2023-07-15T00:22:43.332Z,9.82
2023-07-15T00:22:55.724Z,11.57
2023-07-15T00:23:22.418Z,9.73
2023-07-15T00:23:35.832Z,8.23
2023-07-15T00:23:48.856Z,7.32
2023-07-15T00:24:01.140Z,4.93
2023-07-15T00:24:13.149Z,5.03
2023-07-15T00:24:25.315Z,4.73
2023-07-15T00:24:45.949Z,6.80
2023-07-15T00:24:58.086Z,11.43
2023-07-15T00:25:13.789Z,10.63
2023-07-15T00:25:26.335Z,7.95
2023-07-15T00:25:38.260Z,12.95
2023-07-15T00:25:51.738Z,11.95
2023-07-15T00:26:04.126Z,6.38
2023-07-15T00:26:16.383Z,5.45
2023-07-15T00:26:31.634Z,6.13
2023-07-15T00:26:43.910Z,6.82
2023-07-15T00:26:56.100Z,8.50
2023-07-15T00:27:09.304Z,6.72
2023-07-15T00:27:21.426Z,6.10
2023-07-15T00:27:33.706Z,8.23
2023-07-15T00:27:46.312Z,8.32
2023-07-15T00:27:58.350Z,7.85
2023-07-15T00:28:13.063Z,9.80
2023-07-15T00:28:25.121Z,11.32
2023-07-15T00:28:37.343Z,11.80
2023-07-15T00:28:49.800Z,11.55
2023-07-15T00:29:02.891Z,12.73
2023-07-15T00:29:15.204Z,10.23
2023-07-15T00:29:27.432Z,8.70
2023-07-15T00:29:40.180Z,11.25
2023-07-15T00:29:52.596Z,13.18
2023-07-15T00:30:05.688Z,10.73
2023-07-15T00:30:19.156Z,8.77
2023-07-15T00:30:32.678Z,9.02
2023-07-15T00:30:48.384Z,9.40
2023-07-15T00:31:01.604Z,8.05
2023-07-15T00:31:15.756Z,7.25
2023-07-15T00:31:28.917Z,8.57
2023-07-15T00:31:41.068Z,10.77
2023-07-15T00:31:53.228Z,10.88
2023-07-15T00:32:11.328Z,9.05
2023-07-15T00:32:23.432Z,7.40
2023-07-15T00:32:35.725Z,10.07
2023-07-15T00:32:49.609Z,9.05
2023-07-15T00:33:02.212Z,9.65
2023-07-15T00:33:16.619Z,10.07
2023-07-15T00:33:31.085Z,10.05
2023-07-15T00:33:43.584Z,8.60
2023-07-15T00:33:55.845Z,7.55
2023-07-15T00:34:09.511Z,6.55
2023-07-15T00:34:21.803Z,5.25
2023-07-15T00:34:33.975Z,6.07
2023-07-15T00:34:49.094Z,8.20
2023-07-15T00:35:04.718Z,9.07
2023-07-15T00:35:23.076Z,7.20
2023-07-15T00:35:35.560Z,4.60
2023-07-15T00:35:49.340Z,5.30
2023-07-15T00:36:01.326Z,7.05
2023-07-15T00:36:14.782Z,8.93
2023-07-15T00:36:27.961Z,12.70
2023-07-15T00:36:40.413Z,13.63
2023-07-15T00:36:55.237Z,8.95
2023-07-15T00:37:08.212Z,6.88
2023-07-15T00:37:20.430Z,7.43
2023-07-15T00:37:32.631Z,5.55
2023-07-15T00:37:44.832Z,5.95
2023-07-15T00:37:57.101Z,5.57
2023-07-15T00:38:09.173Z,6.22
2023-07-15T00:38:21.164Z,6.30
2023-07-15T00:38:33.205Z,6.72
2023-07-15T00:38:46.911Z,7.22
2023-07-15T00:38:58.879Z,12.07
2023-07-15T00:39:10.916Z,22.27
2023-07-15T00:39:22.985Z,22.15
2023-07-15T00:39:35.245Z,8.60
2023-07-15T00:39:47.943Z,4.85
2023-07-15T00:40:00.249Z,5.20
2023-07-15T00:40:13.430Z,6.93
2023-07-15T00:40:26.550Z,7.55
2023-07-15T00:40:41.786Z,6.15
2023-07-15T00:40:53.989Z,7.07
2023-07-15T00:41:13.071Z,8.32
2023-07-15T00:41:29.580Z,7.15
2023-07-15T00:41:41.663Z,9.27
2023-07-15T00:41:56.950Z,8.93
2023-07-15T00:42:17.145Z,8.88
2023-07-15T00:43:02.834Z,8.80
2023-07-15T00:43:51.738Z,7.45
2023-07-15T00:44:03.305Z,3.75
2023-07-15T00:44:18.009Z,4.28
2023-07-15T00:44:29.698Z,6.68
2023-07-15T00:44:41.471Z,12.43
2023-07-15T00:44:59.612Z,14.43
2023-07-15T00:45:11.800Z,7.57
2023-07-15T00:45:23.483Z,5.35
2023-07-15T00:45:34.991Z,5.05
2023-07-15T00:46:29.849Z,6.78
2023-07-15T00:47:14.180Z,5.70
2023-07-15T00:47:32.659Z,4.95
2023-07-15T00:47:48.729Z,4.80
2023-07-15T00:48:14.499Z,5.47
2023-07-15T00:48:30.716Z,4.60
2023-07-15T00:48:52.050Z,6.55
2023-07-15T00:49:06.967Z,4.53
2023-07-15T00:49:21.806Z,5.15
2023-07-15T00:49:36.189Z,4.97
2023-07-15T00:49:49.901Z,4.70
2023-07-15T00:50:02.111Z,5.70
2023-07-15T00:50:15.000Z,5.05
2023-07-15T00:50:27.862Z,4.88
2023-07-15T00:50:42.147Z,8.15
2023-07-15T00:50:54.273Z,8.55
2023-07-15T00:51:06.474Z,8.02
2023-07-15T00:51:18.916Z,4.38
2023-07-15T00:51:34.514Z,4.45
2023-07-15T00:51:49.703Z,5.47
2023-07-15T00:52:05.149Z,4.00
2023-07-15T00:52:21.287Z,6.03
2023-07-15T00:52:33.622Z,5.57
2023-07-15T00:52:46.122Z,2.72
2023-07-15T00:52:58.630Z,4.70
2023-07-15T00:53:11.458Z,5.97
2023-07-15T00:53:23.781Z,5.85
2023-07-15T00:53:36.076Z,7.65
2023-07-15T00:53:49.970Z,5.63
2023-07-15T00:54:03.827Z,4.63
2023-07-15T00:54:17.323Z,5.10
2023-07-15T00:54:31.295Z,4.95
2023-07-15T00:54:49.093Z,4.60
2023-07-15T00:55:12.641Z,3.60
2023-07-15T00:55:26.400Z,3.47
2023-07-15T00:55:38.860Z,4.13
2023-07-15T00:55:53.029Z,4.50
2023-07-15T00:56:05.885Z,5.00
2023-07-15T00:56:18.679Z,5.25
2023-07-15T00:56:32.835Z,5.40
2023-07-15T00:56:46.319Z,4.85
2023-07-15T00:56:59.503Z,4.03
2023-07-15T00:57:13.468Z,4.05
2023-07-15T00:57:27.689Z,4.82
2023-07-15T00:57:40.505Z,5.13
2023-07-15T00:57:55.850Z,5.35
2023-07-15T00:58:08.220Z,5.25
2023-07-15T00:58:20.531Z,4.45
2023-07-15T00:58:33.204Z,7.50
2023-07-15T00:58:45.456Z,8.23
2023-07-15T00:58:57.970Z,4.93
2023-07-15T00:59:13.569Z,4.75
2023-07-15T00:59:25.757Z,4.18
2023-07-15T00:59:38.077Z,4.05
2023-07-15T00:59:52.080Z,3.70
2023-07-15T01:00:06.358Z,3.85
2023-07-15T01:00:18.568Z,4.22
2023-07-15T01:00:33.271Z,7.60
2023-07-15T01:00:45.642Z,8.45
2023-07-15T01:00:59.505Z,5.63
2023-07-15T01:01:12.018Z,4.70
2023-07-15T01:01:24.621Z,3.17
2023-07-15T01:01:37.456Z,9.00
2023-07-15T01:01:50.764Z,8.88
2023-07-15T01:02:06.421Z,3.97
2023-07-15T01:02:19.173Z,6.07
2023-07-15T01:02:31.740Z,5.30
2023-07-15T01:02:43.920Z,5.72
2023-07-15T01:02:56.321Z,4.05
2023-07-15T01:03:08.481Z,4.32
2023-07-15T01:03:20.879Z,4.13
2023-07-15T01:03:33.972Z,4.82
2023-07-15T01:03:47.702Z,4.47
2023-07-15T01:04:00.023Z,4.00
2023-07-15T01:04:12.313Z,8.25
2023-07-15T01:04:24.473Z,10.98
2023-07-15T01:04:37.309Z,9.55
2023-07-15T01:04:51.335Z,6.80
2023-07-15T01:05:04.820Z,5.28
2023-07-15T01:05:18.822Z,4.22
2023-07-15T01:05:36.666Z,8.02
2023-07-15T01:05:49.065Z,8.30
2023-07-15T01:06:01.302Z,4.10
2023-07-15T01:06:13.828Z,3.03
2023-07-15T01:06:26.777Z,3.10
2023-07-15T01:06:39.186Z,3.60
2023-07-15T01:06:51.395Z,8.23
2023-07-15T01:07:04.025Z,9.40
2023-07-15T01:07:16.133Z,12.18
2023-07-15T01:07:28.221Z,7.80
2023-07-15T01:07:40.408Z,8.55
2023-07-15T01:07:52.640Z,5.78
2023-07-15T01:08:05.065Z,5.05
2023-07-15T01:08:17.227Z,6.63
2023-07-15T01:08:29.417Z,6.07
2023-07-15T01:08:41.621Z,6.00
2023-07-15T01:08:53.799Z,6.07
2023-07-15T01:09:05.927Z,6.72
2023-07-15T01:09:18.162Z,6.82
2023-07-15T01:09:33.763Z,11.63
2023-07-15T01:09:49.003Z,12.65
2023-07-15T01:10:01.154Z,9.15
2023-07-15T01:10:14.809Z,6.88
2023-07-15T01:10:28.387Z,5.15
2023-07-15T01:10:41.164Z,4.30
2023-07-15T01:10:53.773Z,5.43
2023-07-15T01:11:07.848Z,5.72
2023-07-15T01:11:20.061Z,4.47
2023-07-15T01:11:32.530Z,4.20
2023-07-15T01:11:45.905Z,6.93
2023-07-15T01:11:58.334Z,21.52
2023-07-15T01:12:13.815Z,21.38
2023-07-15T01:12:26.091Z,7.38
2023-07-15T01:12:38.471Z,6.40
2023-07-15T01:12:50.720Z,5.13
2023-07-15T01:13:06.603Z,6.60
2023-07-15T01:13:18.824Z,7.78
2023-07-15T01:13:31.362Z,6.43
2023-07-15T01:13:44.076Z,3.75
2023-07-15T01:13:56.224Z,5.72
2023-07-15T01:14:09.273Z,10.73
2023-07-15T01:14:21.655Z,10.40
2023-07-15T01:14:33.893Z,8.60
2023-07-15T01:14:47.799Z,7.03
2023-07-15T01:14:59.938Z,7.03
2023-07-15T01:15:12.245Z,5.75
2023-07-15T01:15:24.630Z,5.70
2023-07-15T01:15:37.050Z,8.95
2023-07-15T01:15:49.122Z,10.93
2023-07-15T01:16:04.600Z,11.10
2023-07-15T01:16:18.631Z,9.32
2023-07-15T01:16:31.062Z,6.50
2023-07-15T01:16:45.221Z,11.13
2023-07-15T01:16:57.883Z,11.70
2023-07-15T01:17:10.212Z,8.80
2023-07-15T01:17:22.348Z,7.28
2023-07-15T01:17:35.211Z,6.97
2023-07-15T01:17:47.630Z,5.63
2023-07-15T01:18:00.434Z,5.03
2023-07-15T01:18:12.857Z,5.43
2023-07-15T01:18:25.649Z,4.80
2023-07-15T01:18:37.858Z,5.30
2023-07-15T01:18:50.080Z,4.85
2023-07-15T01:19:02.411Z,6.15
2023-07-15T01:19:14.940Z,6.22
2023-07-15T01:19:27.355Z,7.45
2023-07-15T01:19:39.958Z,6.03
2023-07-15T01:19:52.144Z,9.05
2023-07-15T01:20:05.245Z,9.77
2023-07-15T01:20:19.972Z,8.98
2023-07-15T01:20:34.822Z,5.82
2023-07-15T01:20:47.374Z,5.47
2023-07-15T01:20:59.956Z,6.38
2023-07-15T01:21:15.089Z,7.95
2023-07-15T01:21:30.812Z,7.30
2023-07-15T01:21:43.205Z,5.47
2023-07-15T01:21:55.947Z,7.07
2023-07-15T01:22:08.314Z,8.83
2023-07-15T01:22:22.580Z,7.90
2023-07-15T01:22:38.097Z,6.50
2023-07-15T01:22:50.423Z,6.03
2023-07-15T01:23:04.045Z,7.13
2023-07-15T01:23:18.726Z,7.47
2023-07-15T01:23:31.489Z,6.07
2023-07-15T01:23:43.927Z,3.75
2023-07-15T01:23:56.325Z,6.32
2023-07-15T01:24:09.121Z,8.18
2023-07-15T01:24:22.456Z,11.13
2023-07-15T01:24:37.114Z,8.68
2023-07-15T01:24:49.552Z,6.38
2023-07-15T01:25:01.941Z,5.85
2023-07-15T01:25:17.063Z,5.53
2023-07-15T01:25:29.327Z,4.55
2023-07-15T01:25:41.509Z,5.40
2023-07-15T01:25:56.008Z,7.00
2023-07-15T01:26:08.633Z,6.13
2023-07-15T01:26:21.933Z,7.53
2023-07-15T01:26:34.795Z,5.80
2023-07-15T01:26:47.862Z,12.95
2023-07-15T01:27:07.061Z,13.68
2023-07-15T01:27:19.395Z,6.28
2023-07-15T01:27:31.511Z,4.03
2023-07-15T01:27:43.769Z,4.03
2023-07-15T01:27:55.843Z,5.07
2023-07-15T01:28:07.855Z,4.38
2023-07-15T01:28:20.413Z,4.55
2023-07-15T01:28:32.607Z,5.32
2023-07-15T01:28:44.766Z,4.70
2023-07-15T01:28:57.117Z,8.82
2023-07-15T01:29:09.480Z,11.25
2023-07-15T01:29:21.786Z,12.88
2023-07-15T01:29:34.171Z,7.75
2023-07-15T01:29:47.642Z,9.02
2023-07-15T01:29:59.851Z,6.97
2023-07-15T01:30:12.343Z,5.93
2023-07-15T01:30:24.522Z,5.47
2023-07-15T01:30:37.425Z,4.00
2023-07-15T01:30:49.786Z,5.65
2023-07-15T01:31:05.498Z,6.72
2023-07-15T01:31:18.715Z,6.30
2023-07-15T01:31:31.453Z,4.82
2023-07-15T01:31:43.984Z,4.43
2023-07-15T01:31:56.383Z,5.57
2023-07-15T01:32:09.165Z,4.90
2023-07-15T01:32:21.573Z,5.18
2023-07-15T01:32:34.097Z,6.53
2023-07-15T01:32:46.665Z,7.90
2023-07-15T01:32:59.617Z,6.93
2023-07-15T01:33:11.905Z,5.10
2023-07-15T01:33:26.103Z,5.35
2023-07-15T01:33:38.383Z,6.32
2023-07-15T01:33:53.134Z,7.45
2023-07-15T01:34:06.816Z,8.07
2023-07-15T01:34:19.152Z,7.07
2023-07-15T01:34:31.753Z,5.50
2023-07-15T01:34:44.137Z,6.60
2023-07-15T01:34:56.401Z,5.97
2023-07-15T01:35:09.509Z,5.13
2023-07-15T01:35:21.692Z,4.90
2023-07-15T01:35:33.697Z,4.78
2023-07-15T01:35:48.314Z,4.90
2023-07-15T01:36:00.667Z,4.40
2023-07-15T01:36:13.054Z,4.53
2023-07-15T01:36:25.787Z,6.05
2023-07-15T01:36:38.472Z,7.22
2023-07-15T01:36:50.893Z,5.80
2023-07-15T01:37:03.544Z,4.93
2023-07-15T01:37:15.784Z,4.57
2023-07-15T01:37:28.042Z,4.40
2023-07-15T01:37:42.159Z,4.65
2023-07-15T01:37:54.568Z,6.63
2023-07-15T01:38:06.981Z,7.75
2023-07-15T01:38:20.779Z,7.60
2023-07-15T01:38:33.011Z,6.53
2023-07-15T01:38:45.607Z,5.50
2023-07-15T01:38:57.761Z,5.55
2023-07-15T01:39:10.157Z,7.20
2023-07-15T01:39:22.630Z,7.25
2023-07-15T01:39:37.598Z,5.63
2023-07-15T01:39:49.842Z,5.25
2023-07-15T01:40:05.476Z,4.93
2023-07-15T01:40:18.823Z,5.65
2023-07-15T01:40:31.162Z,6.82
2023-07-15T01:40:44.318Z,8.00
2023-07-15T01:40:58.731Z,7.22
2023-07-15T01:41:10.990Z,5.65
2023-07-15T01:41:23.506Z,5.28
2023-07-15T01:41:36.165Z,5.53
2023-07-15T01:41:48.490Z,6.28
2023-07-15T01:42:00.852Z,9.50
2023-07-15T01:42:15.029Z,8.35
2023-07-15T01:42:27.429Z,9.95
2023-07-15T01:42:39.767Z,8.73
2023-07-15T01:42:52.384Z,7.65
2023-07-15T01:43:04.854Z,10.25
2023-07-15T01:43:21.318Z,8.15
2023-07-15T01:43:34.116Z,3.40
2023-07-15T01:43:46.540Z,4.63
2023-07-15T01:43:58.666Z,5.72
2023-07-15T01:44:15.840Z,6.18
2023-07-15T01:44:31.315Z,5.75
2023-07-15T01:44:44.008Z,4.88
2023-07-15T01:45:00.875Z,4.47
2023-07-15T01:45:13.347Z,4.95
2023-07-15T01:45:25.684Z,5.82
2023-07-15T01:45:38.505Z,7.38
2023-07-15T01:45:52.531Z,9.70
2023-07-15T01:46:05.009Z,8.98
2023-07-15T01:46:17.433Z,9.23
2023-07-15T01:46:29.988Z,10.20
2023-07-15T01:46:42.384Z,6.40
2023-07-15T01:46:54.909Z,8.10
2023-07-15T01:47:07.586Z,11.68
2023-07-15T01:47:20.135Z,9.13
2023-07-15T01:47:35.110Z,5.20
2023-07-15T01:47:48.252Z,5.20
2023-07-15T01:48:00.721Z,9.05
2023-07-15T01:48:13.068Z,8.55
2023-07-15T01:48:29.543Z,4.40
2023-07-15T01:48:42.054Z,3.42
2023-07-15T01:48:57.219Z,4.63
2023-07-15T01:49:09.810Z,7.50
2023-07-15T01:49:22.087Z,8.20
2023-07-15T01:49:36.220Z,6.22
2023-07-15T01:49:48.782Z,5.90
2023-07-15T01:50:01.387Z,9.75
2023-07-15T01:50:13.814Z,8.90
2023-07-15T01:50:26.390Z,8.70
2023-07-15T01:50:38.759Z,5.85
2023-07-15T01:50:51.099Z,6.70
2023-07-15T01:51:03.479Z,7.57
2023-07-15T01:51:15.882Z,8.88
2023-07-15T01:51:30.871Z,7.30
2023-07-15T01:51:44.702Z,9.77
2023-07-15T01:51:56.966Z,9.43
2023-07-15T01:52:09.525Z,4.55
2023-07-15T01:52:21.970Z,6.03
2023-07-15T01:52:34.281Z,5.90
2023-07-15T01:52:48.362Z,6.88
2023-07-15T01:53:00.627Z,6.38
2023-07-15T01:53:13.199Z,5.75
2023-07-15T01:53:30.926Z,4.38
2023-07-15T01:53:44.458Z,8.20
2023-07-15T01:53:56.554Z,8.88
2023-07-15T01:54:10.405Z,6.28
2023-07-15T01:54:22.441Z,5.55
2023-07-15T01:54:37.254Z,4.63
2023-07-15T01:54:49.716Z,3.60
2023-07-15T01:55:02.034Z,4.82
2023-07-15T01:55:14.192Z,6.57
2023-07-15T01:55:26.551Z,6.65
2023-07-15T01:55:38.552Z,5.57
2023-07-15T01:55:51.195Z,5.90
2023-07-15T01:56:05.548Z,6.38
2023-07-15T01:56:18.095Z,5.93
2023-07-15T01:56:33.213Z,5.53
2023-07-15T01:56:45.645Z,5.45
2023-07-15T01:56:57.774Z,5.55
2023-07-15T01:57:10.632Z,5.90
2023-07-15T01:57:22.918Z,8.07
2023-07-15T01:57:35.566Z,8.10
2023-07-15T01:57:47.933Z,7.55
2023-07-15T01:58:00.223Z,7.30
2023-07-15T01:58:12.580Z,9.07
2023-07-15T01:58:24.919Z,8.65
2023-07-15T01:58:37.616Z,6.60
2023-07-15T01:58:50.799Z,9.05
2023-07-15T01:59:03.202Z,11.82
2023-07-15T01:59:15.471Z,8.77
2023-07-15T01:59:30.070Z,10.27
2023-07-15T01:59:42.757Z,8.48
2023-07-15T01:59:55.188Z,6.90
2023-07-15T02:00:10.104Z,6.20
2023-07-15T02:00:25.904Z,5.63
2023-07-15T02:00:38.456Z,6.90
2023-07-15T02:00:50.992Z,6.43
2023-07-15T02:01:03.536Z,4.80
2023-07-15T02:01:15.749Z,3.28
2023-07-15T02:01:28.372Z,4.50
2023-07-15T02:01:41.209Z,6.55
2023-07-15T02:01:56.346Z,6.00
2023-07-15T02:02:09.131Z,10.02
2023-07-15T02:02:21.450Z,12.45
2023-07-15T02:02:33.703Z,6.15
2023-07-15T02:02:46.530Z,4.47
2023-07-15T02:02:59.352Z,3.78
2023-07-15T02:03:11.846Z,6.40
2023-07-15T02:03:24.526Z,7.07
2023-07-15T02:03:36.989Z,6.05
2023-07-15T02:03:49.539Z,10.18
2023-07-15T02:04:02.162Z,10.48
2023-07-15T02:04:14.568Z,8.02
2023-07-15T02:04:27.223Z,4.05
2023-07-15T02:04:39.753Z,8.82
2023-07-15T02:04:52.077Z,11.88
2023-07-15T02:05:05.578Z,10.75
2023-07-15T02:05:17.668Z,4.28
2023-07-15T02:05:30.206Z,4.93
2023-07-15T02:05:44.826Z,5.72
2023-07-15T02:05:57.317Z,5.13
2023-07-15T02:06:09.887Z,5.38
2023-07-15T02:06:23.017Z,6.82
2023-07-15T02:06:35.501Z,5.35
2023-07-15T02:06:48.089Z,4.85
2023-07-15T02:07:00.418Z,6.75
2023-07-15T02:07:12.887Z,8.38
2023-07-15T02:07:25.090Z,8.77
2023-07-15T02:07:37.431Z,7.60
2023-07-15T02:07:51.098Z,7.10
2023-07-15T02:08:06.593Z,4.85
2023-07-15T02:08:18.861Z,3.20
2023-07-15T02:08:31.141Z,4.70
2023-07-15T02:08:43.233Z,5.53
2023-07-15T02:08:57.902Z,3.90
2023-07-15T02:09:12.131Z,3.30
2023-07-15T02:09:24.460Z,4.32
2023-07-15T02:09:37.017Z,5.05
2023-07-15T02:09:49.335Z,4.63
2023-07-15T02:10:01.611Z,6.03
2023-07-15T02:10:14.092Z,7.45
2023-07-15T02:10:26.610Z,8.95
2023-07-15T02:10:39.039Z,6.72
2023-07-15T02:10:50.992Z,6.45
2023-07-15T02:11:03.229Z,6.90
2023-07-15T02:11:15.538Z,5.90
2023-07-15T02:11:27.756Z,3.33
2023-07-15T02:11:39.945Z,3.53
2023-07-15T02:11:55.191Z,4.60
2023-07-15T02:12:08.568Z,4.88
2023-07-15T02:12:21.215Z,6.85
2023-07-15T02:12:33.480Z,6.47
2023-07-15T02:12:45.675Z,6.10
2023-07-15T02:12:57.871Z,6.70
2023-07-15T02:13:10.466Z,6.25
2023-07-15T02:13:22.506Z,5.85
2023-07-15T02:13:34.775Z,7.00
2023-07-15T02:13:46.955Z,5.70
2023-07-15T02:13:59.440Z,4.35
2023-07-15T02:14:12.008Z,3.45
2023-07-15T02:14:24.347Z,3.60
2023-07-15T02:14:37.076Z,4.78
2023-07-15T02:14:52.493Z,7.20
2023-07-15T02:15:05.959Z,7.50
2023-07-15T02:15:18.509Z,4.85
2023-07-15T02:15:30.782Z,5.30
2023-07-15T02:15:43.168Z,6.35
2023-07-15T02:15:56.553Z,8.13
2023-07-15T02:16:09.493Z,10.73
2023-07-15T02:16:21.965Z,10.93
2023-07-15T02:16:36.345Z,12.88
2023-07-15T02:16:48.960Z,9.20
2023-07-15T02:17:01.405Z,6.47
2023-07-15T02:17:16.161Z,5.82
2023-07-15T02:17:28.225Z,5.72
2023-07-15T02:17:44.681Z,4.45
2023-07-15T02:17:57.296Z,4.80
2023-07-15T02:18:09.715Z,5.65
2023-07-15T02:18:22.606Z,6.70
2023-07-15T02:18:39.762Z,9.68
2023-07-15T02:18:52.463Z,11.70
2023-07-15T02:19:04.795Z,7.10
2023-07-15T02:19:20.108Z,9.30
2023-07-15T02:19:35.022Z,11.10
2023-07-15T02:19:47.158Z,7.65
2023-07-15T02:19:59.680Z,4.78
2023-07-15T02:20:13.033Z,4.15
2023-07-15T02:20:26.259Z,5.75
2023-07-15T02:20:38.757Z,5.93
2023-07-15T02:20:51.256Z,5.97
2023-07-15T02:21:04.530Z,5.63
2023-07-15T02:21:16.975Z,3.47
2023-07-15T02:21:29.594Z,7.55
2023-07-15T02:21:42.428Z,8.35
2023-07-15T02:21:54.497Z,10.18
2023-07-15T02:22:09.257Z,9.43
2023-07-15T02:22:24.428Z,9.02
2023-07-15T02:22:37.051Z,12.32
2023-07-15T02:22:50.981Z,10.25
2023-07-15T02:23:04.104Z,5.50
2023-07-15T02:23:16.926Z,5.35
2023-07-15T02:23:32.488Z,4.72
2023-07-15T02:23:45.483Z,3.83
2023-07-15T02:23:58.487Z,6.57
2023-07-15T02:24:11.009Z,7.20
2023-07-15T02:24:23.691Z,4.45
2023-07-15T02:24:39.319Z,4.53
2023-07-15T02:25:00.671Z,4.57
2023-07-15T02:25:15.862Z,4.53
2023-07-15T02:25:30.257Z,4.10
2023-07-15T02:25:45.813Z,4.35
2023-07-15T02:25:58.668Z,3.97
2023-07-15T02:26:10.963Z,4.30
2023-07-15T02:26:23.507Z,5.68
2023-07-15T02:26:36.044Z,5.80
2023-07-15T02:26:48.674Z,6.80
2023-07-15T02:27:00.966Z,7.32
2023-07-15T02:27:16.801Z,7.22
2023-07-15T02:27:31.570Z,5.30
2023-07-15T02:27:44.191Z,5.18
2023-07-15T02:27:58.928Z,4.38
2023-07-15T02:28:11.487Z,5.80
2023-07-15T02:28:24.428Z,6.80
2023-07-15T02:28:36.869Z,5.43
2023-07-15T02:28:49.472Z,6.13
2023-07-15T02:29:02.108Z,4.90
2023-07-15T02:29:22.339Z,5.57
2023-07-15T02:29:34.873Z,7.45
2023-07-15T02:29:47.875Z,5.82
2023-07-15T02:30:00.679Z,4.88
2023-07-15T02:30:13.535Z,7.90
2023-07-15T02:30:26.179Z,10.82
2023-07-15T02:30:41.246Z,8.27
2023-07-15T02:30:54.132Z,6.97
2023-07-15T02:31:06.998Z,7.63
2023-07-15T02:31:20.034Z,6.78
2023-07-15T02:31:32.753Z,8.68
2023-07-15T02:31:45.758Z,8.60
2023-07-15T02:32:03.249Z,8.25
2023-07-15T02:32:17.033Z,9.80
2023-07-15T02:32:36.920Z,7.30
2023-07-15T02:32:49.960Z,5.63
2023-07-15T02:33:02.949Z,6.28
2023-07-15T02:33:15.579Z,6.93
2023-07-15T02:33:28.076Z,7.75
2023-07-15T02:33:40.291Z,6.22
2023-07-15T02:33:55.258Z,4.22
2023-07-15T02:34:07.432Z,7.53
2023-07-15T02:34:19.797Z,11.25
2023-07-15T02:34:32.322Z,8.98
2023-07-15T02:34:47.762Z,4.72
2023-07-15T02:35:00.174Z,5.72
2023-07-15T02:35:14.231Z,8.35
2023-07-15T02:35:26.764Z,7.22
2023-07-15T02:35:40.568Z,5.20
2023-07-15T02:35:53.208Z,3.67
2023-07-15T02:36:05.822Z,5.05
2023-07-15T02:36:18.065Z,4.95
2023-07-15T02:36:30.470Z,5.97
2023-07-15T02:36:43.164Z,6.88
2023-07-15T02:36:55.760Z,4.78
2023-07-15T02:37:08.159Z,6.22
2023-07-15T02:37:22.021Z,6.07
2023-07-15T02:37:37.542Z,6.28
2023-07-15T02:37:51.755Z,6.57
2023-07-15T02:38:03.976Z,6.65
2023-07-15T02:38:17.558Z,7.32
2023-07-15T02:38:29.612Z,8.05
2023-07-15T02:38:42.118Z,8.38
2023-07-15T02:38:54.441Z,5.50
2023-07-15T02:39:06.738Z,10.70
2023-07-15T02:39:21.731Z,8.57
2023-07-15T02:39:34.230Z,4.88
2023-07-15T02:39:47.851Z,5.47
2023-07-15T02:40:00.220Z,5.15
2023-07-15T02:40:13.161Z,6.18
2023-07-15T02:40:25.569Z,7.20
2023-07-15T02:40:41.518Z,6.72
2023-07-15T02:40:56.053Z,8.73
2023-07-15T02:41:08.226Z,7.80
2023-07-15T02:41:20.483Z,5.10
2023-07-15T02:41:33.569Z,3.67
2023-07-15T02:41:46.028Z,4.60
2023-07-15T02:41:58.271Z,5.78
2023-07-15T02:42:10.476Z,14.77
2023-07-15T02:42:22.812Z,13.27
2023-07-15T02:42:35.168Z,5.32
2023-07-15T02:42:50.460Z,6.25
2023-07-15T02:43:02.885Z,6.60
2023-07-15T02:43:15.548Z,7.15
2023-07-15T02:43:28.045Z,4.68
2023-07-15T02:43:40.246Z,6.00
2023-07-15T02:43:52.725Z,5.72
2023-07-15T02:44:06.787Z,6.30
2023-07-15T02:44:19.062Z,6.13
2023-07-15T02:44:32.016Z,5.05
2023-07-15T02:44:46.483Z,4.07
2023-07-15T02:44:58.768Z,5.47
2023-07-15T02:45:13.184Z,8.40
2023-07-15T02:45:25.704Z,7.97
2023-07-15T02:45:38.030Z,7.28
2023-07-15T02:45:52.162Z,8.15
2023-07-15T02:46:04.467Z,6.88
2023-07-15T02:46:18.907Z,4.32
2023-07-15T02:46:31.571Z,4.90
2023-07-15T02:46:43.992Z,6.93
2023-07-15T02:46:57.269Z,7.03
2023-07-15T02:47:09.813Z,5.80
2023-07-15T02:47:24.334Z,4.80
2023-07-15T02:47:36.901Z,4.78
2023-07-15T02:47:51.451Z,3.22
2023-07-15T02:48:03.888Z,4.78
2023-07-15T02:48:16.732Z,5.95
2023-07-15T02:48:29.505Z,9.95
2023-07-15T02:48:44.693Z,13.60
2023-07-15T02:48:57.816Z,10.98
2023-07-15T02:49:12.733Z,8.60
2023-07-15T02:49:25.107Z,4.68
2023-07-15T02:49:37.647Z,3.97
2023-07-15T02:49:49.985Z,5.30
2023-07-15T02:50:05.593Z,4.63
2023-07-15T02:50:18.398Z,4.57
2023-07-15T02:50:31.246Z,5.15
2023-07-15T02:50:43.759Z,9.25
2023-07-15T02:50:57.074Z,8.98
2023-07-15T02:51:09.420Z,6.75
2023-07-15T02:51:21.909Z,6.82
2023-07-15T02:51:34.503Z,8.77
2023-07-15T02:51:47.135Z,7.35
2023-07-15T02:52:01.274Z,4.55
2023-07-15T02:52:13.873Z,4.75
2023-07-15T02:52:26.830Z,5.32
2023-07-15T02:52:40.133Z,8.90
2023-07-15T02:52:54.068Z,9.02
2023-07-15T02:53:06.720Z,5.35
2023-07-15T02:53:19.361Z,5.80
2023-07-15T02:53:31.808Z,12.00
2023-07-15T02:53:44.984Z,11.18
2023-07-15T02:54:02.008Z,10.52
2023-07-15T02:54:15.914Z,6.20
2023-07-15T02:54:30.023Z,5.20
2023-07-15T02:54:42.627Z,5.50
2023-07-15T02:54:55.854Z,6.68
2023-07-15T02:55:08.975Z,6.00
2023-07-15T02:55:21.057Z,4.90
2023-07-15T02:55:33.662Z,6.57
2023-07-15T02:55:46.551Z,6.95
2023-07-15T02:55:58.994Z,5.82
2023-07-15T02:56:14.558Z,10.65
2023-07-15T02:56:29.138Z,10.73
2023-07-15T02:56:41.815Z,4.82
2023-07-15T02:56:54.110Z,3.35
2023-07-15T02:57:06.384Z,4.68
2023-07-15T02:57:18.813Z,6.03
2023-07-15T02:57:31.844Z,5.40
2023-07-15T02:57:44.465Z,4.78